TimeCST,TemperatureF,Dew PointF,Humidity,Sea Level PressureIn,VisibilityMPH,Wind Direction,Wind SpeedMPH,Gust SpeedMPH,PrecipitationIn,Events,Conditions,WindDirDegrees,DateUTC
12:15 AM,38.8,36.5,91,30.18,10.0,Calm,Calm,-,N/A,,Clear,0,2013-11-03 05:15:00
12:35 AM,39.0,36.7,91,30.19,10.0,Calm,Calm,-,N/A,,Clear,0,2013-11-03 05:35:00
12:55 AM,38.5,36.3,92,30.19,10.0,Calm,Calm,-,N/A,,Clear,0,2013-11-03 05:55:00
1:15 AM,37.6,35.8,93,30.19,7.0,Calm,Calm,-,N/A,,Clear,0,2013-11-03 06:15:00
1:35 AM,37.2,35.8,95,30.20,7.0,Calm,Calm,-,N/A,,Clear,0,2013-11-03 06:35:00
1:55 AM,37.2,35.6,94,30.21,10.0,Calm,Calm,-,N/A,,Clear,0,2013-11-03 06:55:00
1:15 AM,37.2,35.8,95,30.21,10.0,Calm,Calm,-,N/A,,Clear,0,2013-11-03 07:15:00
1:35 AM,37.6,35.8,93,30.21,10.0,Calm,Calm,-,N/A,,Clear,0,2013-11-03 07:35:00
1:55 AM,37.9,36.3,94,30.22,10.0,Calm,Calm,-,N/A,,Clear,0,2013-11-03 07:55:00
2:15 AM,37.2,35.8,95,30.22,5.0,Calm,Calm,-,N/A,,Clear,0,2013-11-03 08:15:00
2:35 AM,36.7,35.2,95,30.23,7.0,Calm,Calm,-,N/A,,Clear,0,2013-11-03 08:35:00
2:55 AM,36.1,34.7,94,30.22,1.8,Calm,Calm,-,N/A,,Mist,0,2013-11-03 08:55:00
3:15 AM,35.1,33.8,95,30.23,2.0,Calm,Calm,-,N/A,,Clear,0,2013-11-03 09:15:00
3:35 AM,34.9,33.8,96,30.23,1.5,Calm,Calm,-,N/A,,Mist,0,2013-11-03 09:35:00
3:55 AM,34.7,33.3,94,30.24,2.0,Calm,Calm,-,N/A,,Clear,0,2013-11-03 09:55:00
4:15 AM,34.9,33.8,96,30.25,0.5,Calm,Calm,-,N/A,Fog,Fog,0,2013-11-03 10:15:00
4:35 AM,34.5,33.3,95,30.25,0.5,Calm,Calm,-,N/A,Fog,Fog,0,2013-11-03 10:35:00
4:55 AM,32.9,32.0,96,30.25,0.5,Calm,Calm,-,N/A,Fog,Fog,0,2013-11-03 10:55:00
5:15 AM,32.9,32.0,96,30.25,0.8,Calm,Calm,-,N/A,,Mist,0,2013-11-03 11:15:00
5:35 AM,32.5,32.0,98,30.26,1.0,Calm,Calm,-,N/A,,Mist,0,2013-11-03 11:35:00
5:55 AM,32.9,32.0,96,30.26,1.8,Calm,Calm,-,N/A,,Mist,0,2013-11-03 11:55:00
6:15 AM,33.1,32.2,96,30.27,1.2,Calm,Calm,-,N/A,,Mist,0,2013-11-03 12:15:00
6:35 AM,32.9,32.0,96,30.28,0.2,Calm,Calm,-,N/A,Fog,Fog,0,2013-11-03 12:35:00
6:55 AM,33.6,32.5,96,30.28,1.0,Calm,Calm,-,N/A,,Mist,0,2013-11-03 12:55:00
7:15 AM,34.9,33.8,96,30.28,2.5,Calm,Calm,-,N/A,,Clear,0,2013-11-03 13:15:00
7:35 AM,36.7,35.6,96,30.30,3.0,Calm,Calm,-,N/A,,Clear,0,2013-11-03 13:35:00
7:55 AM,39.7,38.5,95,30.30,5.0,Calm,Calm,-,N/A,,Clear,0,2013-11-03 13:55:00
8:15 AM,42.4,41.0,95,30.31,10.0,Calm,Calm,-,N/A,,Clear,0,2013-11-03 14:15:00
8:35 AM,45.7,40.8,83,30.32,10.0,Calm,Calm,-,N/A,,Clear,0,2013-11-03 14:35:00
8:55 AM,48.0,40.8,76,30.32,10.0,Calm,Calm,-,N/A,,Clear,0,2013-11-03 14:55:00
9:15 AM,50.4,41.2,71,30.32,10.0,Calm,Calm,-,N/A,,Clear,0,2013-11-03 15:15:00
9:35 AM,52.2,38.8,60,30.32,10.0,ESE,3.5,-,N/A,,Clear,120,2013-11-03 15:35:00
9:55 AM,53.6,37.4,54,30.32,10.0,Calm,Calm,-,N/A,,Clear,0,2013-11-03 15:55:00
10:15 AM,54.9,36.9,51,30.31,10.0,ESE,5.8,-,N/A,,Clear,120,2013-11-03 16:15:00
10:35 AM,55.9,32.7,41,30.31,10.0,ESE,3.5,-,N/A,,Clear,110,2013-11-03 16:35:00
10:55 AM,56.1,33.6,43,30.30,10.0,SE,3.5,-,N/A,,Clear,130,2013-11-03 16:55:00
11:15 AM,56.5,31.6,39,30.29,10.0,South,4.6,-,N/A,,Clear,170,2013-11-03 17:15:00
11:35 AM,57.4,30.7,36,30.29,10.0,ENE,4.6,-,N/A,,Clear,70,2013-11-03 17:35:00
11:55 AM,57.9,30.6,35,30.28,10.0,SE,3.5,-,N/A,,Clear,130,2013-11-03 17:55:00
12:15 PM,57.9,31.1,36,30.27,10.0,South,4.6,-,N/A,,Clear,170,2013-11-03 18:15:00
12:35 PM,58.3,31.3,36,30.26,10.0,South,8.1,-,N/A,,Clear,190,2013-11-03 18:35:00
12:55 PM,58.8,31.3,35,30.25,10.0,SE,4.6,-,N/A,,Clear,140,2013-11-03 18:55:00
1:15 PM,59.0,32.0,36,30.25,10.0,SE,10.4,-,N/A,,Clear,140,2013-11-03 19:15:00
1:35 PM,59.0,31.8,36,30.25,10.0,South,8.1,-,N/A,,Clear,190,2013-11-03 19:35:00
1:55 PM,59.2,32.0,36,30.23,10.0,South,9.2,-,N/A,,Clear,180,2013-11-03 19:55:00
2:15 PM,59.4,32.5,36,30.23,10.0,SE,11.5,-,N/A,,Clear,140,2013-11-03 20:15:00
2:35 PM,59.0,31.8,36,30.23,10.0,SE,10.4,-,N/A,,Clear,130,2013-11-03 20:35:00
2:55 PM,58.6,32.0,37,30.22,10.0,South,9.2,-,N/A,,Clear,170,2013-11-03 20:55:00
3:15 PM,58.8,33.3,38,30.21,10.0,SE,8.1,-,N/A,,Clear,130,2013-11-03 21:15:00
3:35 PM,58.1,33.6,40,30.21,10.0,SSE,9.2,-,N/A,,Clear,160,2013-11-03 21:35:00
3:55 PM,57.7,33.1,39,30.21,10.0,SSE,8.1,-,N/A,,Clear,150,2013-11-03 21:55:00
4:15 PM,56.5,34.3,43,30.21,10.0,SSE,8.1,-,N/A,,Clear,150,2013-11-03 22:15:00
4:35 PM,54.5,34.9,48,30.20,10.0,SE,6.9,-,N/A,,Clear,130,2013-11-03 22:35:00
4:55 PM,54.0,35.2,49,30.21,10.0,ESE,4.6,-,N/A,,Clear,120,2013-11-03 22:55:00
5:15 PM,53.2,34.9,50,30.21,10.0,ESE,4.6,-,N/A,,Clear,110,2013-11-03 23:15:00
5:35 PM,51.6,35.2,54,30.22,10.0,Calm,Calm,-,N/A,,Clear,0,2013-11-03 23:35:00
5:55 PM,51.4,35.1,54,30.22,10.0,ESE,3.5,-,N/A,,Clear,110,2013-11-03 23:55:00
6:15 PM,50.7,34.9,55,30.22,10.0,East,3.5,-,N/A,,Clear,100,2013-11-04 00:15:00
6:35 PM,50.0,34.9,56,30.23,10.0,East,3.5,-,N/A,,Clear,100,2013-11-04 00:35:00
6:55 PM,50.0,34.7,56,30.23,10.0,ESE,3.5,-,N/A,,Clear,110,2013-11-04 00:55:00
7:15 PM,49.3,34.9,58,30.23,10.0,East,3.5,-,N/A,,Clear,100,2013-11-04 01:15:00
7:35 PM,48.9,35.4,60,30.23,10.0,ESE,4.6,-,N/A,,Clear,110,2013-11-04 01:35:00
7:55 PM,48.4,35.8,62,30.23,10.0,ESE,5.8,-,N/A,,Clear,120,2013-11-04 01:55:00
8:15 PM,49.1,36.3,61,30.23,10.0,ESE,6.9,-,N/A,,Clear,110,2013-11-04 02:15:00
8:35 PM,48.7,36.5,63,30.24,10.0,ESE,6.9,-,N/A,,Clear,120,2013-11-04 02:35:00
8:55 PM,49.1,36.9,63,30.24,10.0,SE,10.4,-,N/A,,Clear,130,2013-11-04 02:55:00
9:15 PM,48.9,37.0,64,30.23,10.0,ESE,8.1,-,N/A,,Clear,120,2013-11-04 03:15:00
9:35 PM,49.3,36.9,62,30.22,10.0,ESE,6.9,-,N/A,,Clear,120,2013-11-04 03:35:00
9:55 PM,50.0,36.5,60,30.22,10.0,ESE,6.9,-,N/A,,Clear,120,2013-11-04 03:55:00
10:15 PM,50.2,36.7,60,30.22,10.0,SE,5.8,-,N/A,,Clear,130,2013-11-04 04:15:00
10:35 PM,50.5,36.5,59,30.22,10.0,SE,9.2,-,N/A,,Clear,130,2013-11-04 04:35:00
10:55 PM,50.7,36.5,58,30.21,10.0,SE,9.2,-,N/A,,Clear,130,2013-11-04 04:55:00